createdAt,value
2019-03-01T00:05:42.490Z,59.4
2019-03-01T00:15:45.902Z,59.6
2019-03-01T00:25:49.345Z,59.9
2019-03-01T00:35:52.801Z,59.8
2019-03-01T00:45:56.245Z,59.5
2019-03-01T00:55:59.728Z,58.8
2019-03-01T01:06:03.217Z,56.7
2019-03-01T01:16:06.653Z,56.2
2019-03-01T01:26:10.070Z,55.7
2019-03-01T01:36:13.520Z,55.3
2019-03-01T01:46:16.968Z,56.2
2019-03-01T01:56:20.419Z,57.2
2019-03-01T02:06:23.829Z,57
2019-03-01T02:16:27.262Z,58
2019-03-01T02:26:30.725Z,63.4
2019-03-01T02:36:34.176Z,65.5
2019-03-01T02:46:37.677Z,67.1
2019-03-01T02:56:41.127Z,66.5
2019-03-01T03:06:44.582Z,66.1
2019-03-01T03:16:47.994Z,66.3
2019-03-01T03:26:51.462Z,67.3
2019-03-01T03:36:54.915Z,66.9
2019-03-01T03:46:58.382Z,66.7
2019-03-01T03:57:01.874Z,66.6
2019-03-01T04:07:05.356Z,67.4
2019-03-01T04:17:08.770Z,68.8
2019-03-01T04:27:12.226Z,69.6
2019-03-01T04:37:15.690Z,70.3
2019-03-01T04:47:19.139Z,71.4
2019-03-01T04:57:22.576Z,73.9
2019-03-01T05:07:26.002Z,73.8
2019-03-01T05:17:29.451Z,74
2019-03-01T05:27:32.852Z,74.8
2019-03-01T05:37:36.314Z,77.8
2019-03-01T05:47:39.761Z,78.9
2019-03-01T05:57:43.223Z,79.6
2019-03-01T06:07:46.646Z,79.1
2019-03-01T06:17:50.082Z,79.1
2019-03-01T06:27:53.511Z,78.1
2019-03-01T06:37:56.949Z,78.1
2019-03-01T06:48:00.374Z,76.6
2019-03-01T06:58:03.787Z,77
2019-03-01T07:08:07.226Z,77.6
2019-03-01T07:18:10.671Z,77.5
2019-03-01T07:28:14.101Z,77.7
2019-03-01T07:38:17.545Z,78
2019-03-01T07:48:20.968Z,80.8
2019-03-01T07:58:26.879Z,83.1
2019-03-01T08:08:30.339Z,80.6
2019-03-01T08:18:33.773Z,80
2019-03-01T08:28:37.207Z,81.5
2019-03-01T08:38:40.650Z,82.1
2019-03-01T08:48:44.095Z,82.9
2019-03-01T08:58:47.535Z,82.8
2019-03-01T09:08:50.986Z,83.3
2019-03-01T09:18:54.424Z,81.3
2019-03-01T09:28:57.871Z,81.3
2019-03-01T09:39:01.283Z,81.4
2019-03-01T09:49:04.705Z,81.1
2019-03-01T09:59:08.134Z,81.1
2019-03-01T10:09:11.586Z,80.9
2019-03-01T10:19:15.005Z,82.4
2019-03-01T10:29:18.402Z,83.8
2019-03-01T10:39:21.844Z,81.5
2019-03-01T10:49:25.256Z,80.7
2019-03-01T10:59:28.711Z,82.2
2019-03-01T11:09:32.182Z,81.9
2019-03-01T11:19:35.625Z,82
2019-03-01T11:29:39.062Z,83.5
2019-03-01T11:39:42.488Z,82.4
2019-03-01T11:49:45.935Z,83.8
2019-03-01T11:59:49.376Z,83.9
2019-03-01T12:09:52.794Z,84
2019-03-01T12:19:56.243Z,84.6
2019-03-01T12:29:59.684Z,85.1
2019-03-01T12:40:03.112Z,84.5
2019-03-01T12:50:06.553Z,84
2019-03-01T13:00:09.991Z,83.9
2019-03-01T13:10:13.508Z,82.7
2019-03-01T13:20:17.153Z,83.1
2019-03-01T13:30:20.569Z,82.1
2019-03-01T13:40:25.563Z,80.8
2019-03-01T13:50:30.081Z,79.4
2019-03-01T14:00:33.483Z,78.8
2019-03-01T14:10:41.729Z,79
2019-03-01T14:20:46.704Z,78.4
2019-03-01T14:30:50.175Z,77.7
2019-03-01T14:40:59.458Z,78.6
2019-03-01T14:51:10.630Z,79.6
2019-03-01T15:01:15.308Z,83.7
2019-03-01T15:11:18.741Z,82.2
2019-03-01T15:21:22.186Z,82.3
2019-03-01T15:31:25.613Z,80.2
2019-03-01T15:41:29.018Z,81.1
2019-03-01T15:51:38.299Z,80.1
2019-03-01T16:01:47.089Z,79.8
2019-03-01T16:11:56.220Z,80.3
2019-03-01T16:22:00.964Z,79.9
2019-03-01T16:32:07.996Z,79.6
2019-03-01T16:42:18.787Z,78.7
2019-03-01T16:52:22.736Z,79.3
2019-03-01T17:02:26.636Z,77.5
2019-03-01T17:12:30.495Z,76.4
2019-03-01T17:22:33.916Z,76.8
2019-03-01T17:32:37.873Z,77.6
2019-03-01T17:42:41.347Z,77.2
2019-03-01T17:52:44.757Z,76.8
2019-03-01T18:02:52.008Z,76.1
2019-03-01T18:12:57.144Z,77.5
2019-03-01T18:23:03.239Z,79.1
2019-03-01T18:33:06.745Z,79
2019-03-01T18:43:13.800Z,78.7
2019-03-01T18:53:18.162Z,79.4
2019-03-01T19:03:22.583Z,80
2019-03-01T19:13:26.359Z,79.2
2019-03-01T19:23:33.331Z,79.6
2019-03-01T19:33:41.420Z,79.3
2019-03-01T19:43:57.544Z,80
2019-03-01T19:54:02.463Z,79.5
2019-03-01T20:04:06.288Z,80.5
2019-03-01T20:14:09.734Z,80.1
2019-03-01T20:24:13.165Z,78.7
2019-03-01T20:34:16.598Z,78.5
2019-03-01T20:44:20.093Z,78.5
2019-03-01T20:54:27.044Z,79
2019-03-01T21:04:30.537Z,79.3
2019-03-01T21:14:34.001Z,79.3
2019-03-01T21:24:37.421Z,79.1
2019-03-01T21:34:40.876Z,79.2
2019-03-01T21:44:46.706Z,79
2019-03-01T21:54:53.273Z,79.7
2019-03-01T22:04:56.798Z,79.7
2019-03-01T22:15:00.389Z,79.4
2019-03-01T22:25:03.824Z,78.1
2019-03-01T22:35:09.671Z,78.8
2019-03-01T22:45:14.538Z,78.5
2019-03-01T22:55:18.077Z,78.8
2019-03-01T23:05:21.508Z,78.8
2019-03-01T23:15:24.919Z,78.3
2019-03-01T23:25:28.376Z,79.7
2019-03-01T23:35:31.789Z,80.6
2019-03-01T23:45:36.257Z,80.6
2019-03-01T23:55:40.673Z,80.8
